createdAt,value
2018-05-12T09:46:58.887Z,64.37
2018-05-12T09:47:47.258Z,66.24
2018-05-12T09:48:47.274Z,70.20
2018-05-12T09:54:37.480Z,63.40
2018-05-12T09:55:22.335Z,63.66
2018-05-12T09:56:22.343Z,63.79
2018-05-12T09:57:22.362Z,65.56
2018-05-12T09:58:22.368Z,62.49
2018-05-12T09:59:50.946Z,63.23
2018-05-12T10:00:22.409Z,62.95
2018-05-12T10:01:22.424Z,61.82
2018-05-12T10:02:22.447Z,61.72
2018-05-12T10:03:22.545Z,62.98
2018-05-12T10:06:08.242Z,67.40
2018-05-12T10:06:54.146Z,69.43
2018-05-12T10:07:54.166Z,70.81
2018-05-12T10:08:54.170Z,72.13
2018-05-12T10:13:29.175Z,72.55
2018-05-12T10:13:57.578Z,72.61
2018-05-12T10:47:21.915Z,61.16
2018-05-12T10:48:03.760Z,60.28
2018-05-12T10:49:03.768Z,59.83
2018-05-12T10:50:03.798Z,56.61
2018-05-12T10:57:41.810Z,60.19
2018-05-12T10:58:10.789Z,55.35
2018-05-12T10:59:10.810Z,51.70
2018-05-12T11:00:10.826Z,51.17
2018-05-12T11:04:15.539Z,59.22
2018-05-12T11:05:14.995Z,59.81
2018-05-12T11:06:31.501Z,60.88
2018-05-12T11:07:16.171Z,61.26
2018-05-12T11:08:15.056Z,60.78
2018-05-12T11:09:16.196Z,59.19
2018-05-12T11:10:18.396Z,59.31
2018-05-12T11:12:46.891Z,53.89
2018-05-12T11:13:46.854Z,55.53
2018-05-12T11:14:46.869Z,59.58
2018-05-12T11:29:57.154Z,63.65
2018-05-12T11:30:34.386Z,62.20
2018-05-12T11:31:34.140Z,64.04
2018-05-12T11:32:34.095Z,60.84
2018-05-12T11:33:34.115Z,62.59
2018-05-12T11:34:34.129Z,60.94
2018-05-12T11:35:34.150Z,60.48
2018-05-12T11:41:09.180Z,63.04
2018-05-12T11:46:44.134Z,61.40
2018-05-12T11:47:44.101Z,60.00
2018-05-12T11:48:44.117Z,59.97
2018-05-12T11:49:44.138Z,59.28
2018-05-12T11:50:44.156Z,60.13
2018-05-12T11:51:44.225Z,60.94
2018-05-12T11:52:44.183Z,60.78
2018-05-12T11:53:44.203Z,63.14
2018-05-12T11:54:44.216Z,64.98
2018-05-12T11:55:44.234Z,64.31
2018-05-12T11:57:03.460Z,66.02
2018-05-12T11:57:44.264Z,63.49
2018-05-12T11:58:44.269Z,60.31
2018-05-12T11:59:44.285Z,57.92
2018-05-12T12:00:44.307Z,57.17
2018-05-12T12:03:17.586Z,55.83
2018-05-12T12:04:15.994Z,53.30
2018-05-12T12:05:15.985Z,54.78
2018-05-12T12:06:26.671Z,57.64
2018-05-12T12:07:16.015Z,58.83
2018-05-12T12:08:16.035Z,59.54
2018-05-12T12:09:16.048Z,58.44
2018-05-12T12:10:16.059Z,59.48
2018-05-12T12:11:16.130Z,59.03
2018-05-12T12:12:16.100Z,61.52
2018-05-12T12:13:16.120Z,63.17
2018-05-12T12:14:16.137Z,63.17
2018-05-12T12:15:16.157Z,64.85
2018-05-12T12:16:27.143Z,61.55
2018-05-12T12:17:16.187Z,60.90
2018-05-12T12:18:16.201Z,61.12
2018-05-12T12:19:16.226Z,59.22
2018-05-12T12:20:16.246Z,61.98
2018-05-12T12:21:17.110Z,64.66
2018-05-12T12:22:16.285Z,65.50
2018-05-12T12:23:16.409Z,67.49
2018-05-12T12:24:16.316Z,69.20
2018-05-12T12:25:16.378Z,70.30
2018-05-12T12:26:16.348Z,68.46
2018-05-12T12:27:16.369Z,67.14
2018-05-12T12:28:16.379Z,67.91
2018-05-12T12:29:16.402Z,68.46
2018-05-12T12:30:37.485Z,69.56
2018-05-12T12:31:16.429Z,67.40
2018-05-12T12:32:16.449Z,67.33
2018-05-12T12:33:16.589Z,66.69
2018-05-12T12:34:27.885Z,65.89
2018-05-12T12:35:16.493Z,61.42
2018-05-12T12:36:16.499Z,59.64
2018-05-12T12:37:16.514Z,58.83
2018-05-12T12:38:16.532Z,60.71
2018-05-12T12:39:16.550Z,61.17
2018-05-12T12:43:34.048Z,67.40
2018-05-12T12:44:19.945Z,67.37
2018-05-12T12:45:23.037Z,64.62
2018-05-12T12:46:20.491Z,64.89
2018-05-12T12:47:21.917Z,64.53
2018-05-12T12:48:20.447Z,63.65
2018-05-12T12:49:20.970Z,64.34
2018-05-12T12:50:21.446Z,65.40
2018-05-12T12:51:20.034Z,65.98
2018-05-12T12:52:20.038Z,65.17
2018-05-12T12:53:20.065Z,63.43
2018-05-12T12:54:38.551Z,63.72
2018-05-12T12:55:20.087Z,64.20
2018-05-12T12:56:20.095Z,64.66
2018-05-12T12:57:20.111Z,66.95
2018-05-12T12:58:20.140Z,67.33
2018-05-12T12:59:20.137Z,69.24
2018-05-12T13:00:20.195Z,70.56
2018-05-12T13:01:20.163Z,69.98
2018-05-12T13:02:20.173Z,67.66
2018-05-12T13:03:20.269Z,68.14
2018-05-12T13:04:20.196Z,68.33
2018-05-12T13:05:20.253Z,69.68
2018-05-12T13:06:20.221Z,69.59
2018-05-12T13:07:20.235Z,70.84
2018-05-12T13:08:20.245Z,70.84
2018-05-12T13:09:20.255Z,72.39
2018-05-12T13:12:10.034Z,73.65
2018-05-12T13:12:51.961Z,73.13
2018-05-12T13:13:51.976Z,74.04
2018-05-12T13:14:59.523Z,73.78
2018-05-12T13:15:52.016Z,72.11
2018-05-12T13:16:52.008Z,70.47
2018-05-12T13:17:52.778Z,68.79
2018-05-12T13:18:52.032Z,68.43
2018-05-12T13:21:29.353Z,71.40
2018-05-12T13:22:23.773Z,70.82
2018-05-12T13:23:23.781Z,69.85
2018-05-12T13:24:23.794Z,68.56
2018-05-12T13:25:23.855Z,69.62
2018-05-12T13:26:23.813Z,70.30
2018-05-12T13:27:23.817Z,70.40
2018-05-12T13:28:23.835Z,69.78
2018-05-12T13:29:23.851Z,70.65
2018-05-12T13:30:23.903Z,72.04
2018-05-12T13:31:23.961Z,71.84
2018-05-12T13:32:23.937Z,70.59
2018-05-12T13:33:23.894Z,71.14
2018-05-12T13:34:23.903Z,71.88
2018-05-12T13:35:23.971Z,72.16
2018-05-12T13:36:23.924Z,71.91
2018-05-12T13:37:23.934Z,70.59
2018-05-12T13:38:23.945Z,71.17
2018-05-12T13:39:23.988Z,69.95
2018-05-12T13:40:24.029Z,68.37
2018-05-12T13:41:24.116Z,67.40
2018-05-12T13:42:23.986Z,67.05
2018-05-12T13:43:23.990Z,67.24
2018-05-12T13:44:24.050Z,66.53
2018-05-12T13:45:24.022Z,66.72
2018-05-12T13:46:24.022Z,67.33
2018-05-12T13:47:24.158Z,69.14
2018-05-12T13:48:24.047Z,69.59
2018-05-12T13:49:25.079Z,71.14
2018-05-12T13:50:24.067Z,71.33
2018-05-12T13:51:24.071Z,71.42
2018-05-12T13:52:24.094Z,72.04
2018-05-12T13:53:31.816Z,71.36
2018-05-12T13:54:24.112Z,71.17
2018-05-12T13:55:24.123Z,70.59
2018-05-12T13:56:24.129Z,69.92
2018-05-12T13:57:24.140Z,71.36
2018-05-12T13:58:29.580Z,70.98
2018-05-12T13:59:24.236Z,70.66
2018-05-12T14:00:24.163Z,67.37
2018-05-12T14:01:24.184Z,67.69
2018-05-12T14:02:24.190Z,65.72
2018-05-12T14:03:29.302Z,63.59
2018-05-12T14:04:24.215Z,66.95
2018-05-12T14:05:24.223Z,64.43
2018-05-12T14:06:24.238Z,66.34
2018-05-12T14:07:24.284Z,66.69
2018-05-12T14:08:24.252Z,68.11
2018-05-12T14:09:32.078Z,69.43
2018-05-12T14:10:24.280Z,69.62
2018-05-12T14:11:24.288Z,70.59
2018-05-12T14:12:24.303Z,70.68
2018-05-12T14:13:25.321Z,70.10
2018-05-12T14:14:24.323Z,69.79
2018-05-12T14:15:24.337Z,68.76
2018-05-12T14:16:24.346Z,66.37
2018-05-12T14:17:24.353Z,65.47
2018-05-12T14:18:24.522Z,67.21
2018-05-12T14:19:24.378Z,67.60
2018-05-12T14:20:24.391Z,68.85
2018-05-12T14:21:24.402Z,69.89
2018-05-12T14:22:24.408Z,70.27
2018-05-12T14:23:35.318Z,72.04
2018-05-12T14:24:24.438Z,73.14
2018-05-12T14:25:24.441Z,72.56
2018-05-12T14:26:24.515Z,71.72
2018-05-12T14:27:24.473Z,71.24
2018-05-12T14:28:25.325Z,70.60
2018-05-12T14:29:24.501Z,69.27
2018-05-12T14:30:24.505Z,68.89
2018-05-12T14:31:24.518Z,70.08
2018-05-12T14:32:24.533Z,70.73
2018-05-12T14:33:42.825Z,68.79
2018-05-12T14:34:24.554Z,67.57
2018-05-12T14:35:24.566Z,67.92
2018-05-12T14:36:24.583Z,68.33
2018-05-12T14:37:24.592Z,70.30
2018-05-12T14:38:25.325Z,71.17
2018-05-12T14:39:24.614Z,71.91
2018-05-12T14:40:24.636Z,72.88
2018-05-12T14:41:24.643Z,74.10
2018-05-12T14:42:24.652Z,72.94
2018-05-12T14:43:32.328Z,73.61
2018-05-12T14:44:24.676Z,73.13
2018-05-12T14:45:24.685Z,72.45
2018-05-12T14:46:24.692Z,73.42
2018-05-12T14:47:24.713Z,73.71
2018-05-12T14:48:24.761Z,73.71
2018-05-12T14:49:24.729Z,74.48
2018-05-12T14:50:24.737Z,73.90
2018-05-12T14:51:24.744Z,75.60
2018-05-12T14:52:24.765Z,75.89
2018-05-12T14:53:26.498Z,75.54
2018-05-12T14:54:24.779Z,74.32
2018-05-12T14:55:24.792Z,74.07
2018-05-12T14:56:24.799Z,73.20
2018-05-12T14:57:24.807Z,73.82
2018-05-12T14:58:24.859Z,72.27
2018-05-12T14:59:24.831Z,71.26
2018-05-12T15:00:24.845Z,72.81
2018-05-12T15:01:24.853Z,71.20
2018-05-12T15:02:25.860Z,72.36
2018-05-12T15:03:24.873Z,72.30
2018-05-12T15:04:24.880Z,71.20
2018-05-12T15:05:24.890Z,71.98
2018-05-12T15:06:25.789Z,72.08
2018-05-12T15:08:00.369Z,72.52
2018-05-12T15:08:24.949Z,72.04
2018-05-12T15:09:24.939Z,71.17
2018-05-12T15:10:24.946Z,70.34
2018-05-12T15:11:24.955Z,69.66
2018-05-12T15:12:26.838Z,68.98
2018-05-12T15:13:24.975Z,69.82
2018-05-12T15:14:24.987Z,70.88
2018-05-12T15:15:24.996Z,70.34
2018-05-12T15:16:25.011Z,72.72
2018-05-12T15:17:25.076Z,72.60
2018-05-12T15:18:25.030Z,72.75
2018-05-12T15:19:25.048Z,74.32
2018-05-12T15:20:25.049Z,75.48
2018-05-12T15:21:25.131Z,75.87
2018-05-12T15:22:25.070Z,75.00
2018-05-12T15:23:25.373Z,75.20
2018-05-12T15:24:25.089Z,75.78
2018-05-12T15:25:25.102Z,75.78
2018-05-12T15:26:25.266Z,75.48
2018-05-12T15:27:26.848Z,76.64
2018-05-12T15:28:25.131Z,76.12
2018-05-12T15:29:25.153Z,77.00
2018-05-12T15:30:25.154Z,77.38
2018-05-12T15:31:25.161Z,78.06
2018-05-12T15:32:25.171Z,77.42
2018-05-12T15:33:25.841Z,77.48
2018-05-12T15:34:25.185Z,78.54
2018-05-12T15:35:25.200Z,78.06
2018-05-12T15:36:25.208Z,77.71
2018-05-12T15:37:49.341Z,76.74
2018-05-12T15:38:25.226Z,77.13
2018-05-12T15:39:25.235Z,77.22
2018-05-12T15:40:25.251Z,78.19
2018-05-12T15:41:25.253Z,77.51
2018-05-12T15:42:25.299Z,76.49
2018-05-12T15:43:25.271Z,77.61
2018-05-12T15:44:25.273Z,77.32
2018-05-12T15:45:25.290Z,78.77
2018-05-12T15:46:25.315Z,78.19
2018-05-12T15:47:25.843Z,78.03
2018-05-12T15:48:25.648Z,77.61
2018-05-12T15:49:25.333Z,78.73
2018-05-12T15:50:25.343Z,79.64
2018-05-12T15:51:25.348Z,79.60
2018-05-12T15:52:25.571Z,79.31
2018-05-12T15:53:25.372Z,79.31
2018-05-12T15:54:25.386Z,80.47
2018-05-12T15:55:25.394Z,80.66
2018-05-12T15:56:25.410Z,79.80
2018-05-12T15:57:25.469Z,79.54
2018-05-12T15:58:25.458Z,79.60
2018-05-12T15:59:25.421Z,80.28
2018-05-12T16:00:25.442Z,80.18
2018-05-12T16:01:26.432Z,79.83
2018-05-12T16:02:47.440Z,78.96
2018-05-12T16:03:25.471Z,79.74
2018-05-12T16:04:25.480Z,76.74
2018-05-12T16:05:25.491Z,77.03
2018-05-12T16:06:25.548Z,77.51
2018-05-12T16:07:33.731Z,77.13
2018-05-12T16:08:25.521Z,76.74
2018-05-12T16:09:25.560Z,75.87
2018-05-12T16:10:25.536Z,75.26
2018-05-12T16:11:25.549Z,75.00
2018-05-12T16:12:25.601Z,76.29
2018-05-12T16:13:25.568Z,74.62
2018-05-12T16:14:25.577Z,74.90
2018-05-12T16:15:25.585Z,74.96
2018-05-12T16:16:25.595Z,75.29
2018-05-12T16:17:25.960Z,74.58
2018-05-12T16:18:25.610Z,75.16
2018-05-12T16:19:25.622Z,74.58
2018-05-12T16:20:25.644Z,75.20
2018-05-12T16:21:25.647Z,74.65
2018-05-12T16:22:43.855Z,74.71
2018-05-12T16:23:25.659Z,74.52
2018-05-12T16:24:25.666Z,75.58
2018-05-12T16:25:25.680Z,73.90
2018-05-12T16:26:25.688Z,73.90
2018-05-12T16:27:43.865Z,74.52
2018-05-12T16:28:25.708Z,75.45
2018-05-12T16:29:25.716Z,77.19
2018-05-12T16:30:25.729Z,78.15
2018-05-12T16:31:25.745Z,78.44
2018-05-12T16:32:34.296Z,77.96
2018-05-12T16:33:25.754Z,78.06
2018-05-12T16:34:26.122Z,78.64
2018-05-12T16:35:25.773Z,78.92
2018-05-12T16:36:25.782Z,79.50
2018-05-12T16:46:47.294Z,73.52
2018-05-12T16:47:35.660Z,72.74
2018-05-12T16:48:35.669Z,71.88
2018-05-12T16:49:35.678Z,70.32
2018-05-12T16:50:35.754Z,70.14
2018-05-12T16:51:38.772Z,68.30
2018-05-12T16:52:35.702Z,69.46
2018-05-12T16:53:35.726Z,69.56
2018-05-12T16:54:35.801Z,70.04
2018-05-12T16:55:35.727Z,68.68
2018-05-12T16:56:35.735Z,67.43
2018-05-12T16:57:35.792Z,69.07
2018-05-12T16:58:35.752Z,69.36
2018-05-12T16:59:35.762Z,68.88
2018-05-12T17:00:35.763Z,69.52
2018-05-12T17:01:36.183Z,70.48
2018-05-12T17:02:35.829Z,70.78
2018-05-12T17:03:35.786Z,71.20
2018-05-12T17:04:35.795Z,71.78
2018-05-12T17:05:35.798Z,72.61
2018-05-12T17:06:35.917Z,73.67
2018-05-12T17:07:35.870Z,75.37
2018-05-12T17:08:35.833Z,76.57
2018-05-12T17:09:35.836Z,76.37
2018-05-12T17:10:35.836Z,76.76
2018-05-12T17:11:35.855Z,76.92
2018-05-12T17:12:35.902Z,78.08
2018-05-12T17:13:35.854Z,78.27
2018-05-12T17:14:35.869Z,78.27
2018-05-12T17:15:35.879Z,78.08
2018-05-12T17:16:36.318Z,78.08
2018-05-12T17:17:35.895Z,78.75
2018-05-12T17:18:35.897Z,79.04
2018-05-12T17:19:35.903Z,78.94
2018-05-12T17:20:36.092Z,80.10
2018-05-12T17:21:35.953Z,80.35
2018-05-12T17:22:35.925Z,80.26
2018-05-12T17:23:35.929Z,80.16
2018-05-12T17:24:35.946Z,80.93
2018-05-12T17:25:35.945Z,81.32
2018-05-12T17:26:36.090Z,81.41
2018-05-12T17:27:35.961Z,81.60
2018-05-12T17:28:35.966Z,82.28
2018-05-12T17:29:35.962Z,82.48
2018-05-12T17:30:35.979Z,81.70
2018-05-12T17:31:36.328Z,81.60
2018-05-12T17:32:35.991Z,83.01
2018-05-12T17:33:35.996Z,83.78
2018-05-12T17:34:36.003Z,83.59
2018-05-12T17:35:36.008Z,83.30
2018-05-12T17:36:36.887Z,83.30
2018-05-12T17:37:36.020Z,84.46
2018-05-12T17:38:36.029Z,84.32
2018-05-12T17:39:36.033Z,85.42
2018-05-12T17:40:36.037Z,85.09
2018-05-12T17:41:37.785Z,85.67
2018-05-12T17:42:36.050Z,85.96
2018-05-12T17:43:36.057Z,86.73
2018-05-12T17:44:36.063Z,86.92
2018-05-12T17:45:36.066Z,87.12
2018-05-12T17:46:36.222Z,88.85
2018-05-12T17:47:36.078Z,88.42
2018-05-12T17:48:36.332Z,88.42
2018-05-12T17:49:36.090Z,89.19
2018-05-12T17:50:36.095Z,89.00
2018-05-12T17:51:36.291Z,88.90
2018-05-12T17:52:36.103Z,89.00
2018-05-12T17:53:36.112Z,88.51
2018-05-12T17:54:36.117Z,88.51
2018-05-12T17:55:36.241Z,88.23
2018-05-12T17:56:36.131Z,88.23
2018-05-12T17:57:36.133Z,88.04
2018-05-12T17:58:36.138Z,87.94
2018-05-12T17:59:36.151Z,87.84
2018-05-12T18:00:37.774Z,89.09
2018-05-12T18:01:36.162Z,88.32
2018-05-12T18:02:36.156Z,88.51
2018-05-12T18:03:36.163Z,88.81
2018-05-12T18:04:36.173Z,88.42
2018-05-12T18:05:36.210Z,88.95
2018-05-12T18:06:36.176Z,88.47
2018-05-12T18:07:36.183Z,88.95
2018-05-12T18:08:36.187Z,89.24
2018-05-12T18:09:36.187Z,89.15
2018-05-12T18:10:36.256Z,88.38
2018-05-12T18:11:36.244Z,89.34
2018-05-12T18:12:36.212Z,88.95
2018-05-12T18:13:36.213Z,88.57
2018-05-12T18:14:36.216Z,88.47
2018-05-12T18:15:36.221Z,88.67
2018-05-12T18:18:09.489Z,89.05
2018-05-12T18:19:07.842Z,89.15
2018-05-12T18:20:07.845Z,89.24
2018-05-12T18:45:44.233Z,96.99
2018-05-12T18:46:35.671Z,96.61
2018-05-12T18:47:40.016Z,97.57
2018-05-12T19:56:10.635Z,99.99
2018-05-12T19:56:55.438Z,99.99
2018-05-12T19:57:55.424Z,99.99
2018-05-12T20:15:52.555Z,99.99
2018-05-12T20:16:44.391Z,99.99
2018-05-12T20:17:44.398Z,99.99
2018-05-12T20:18:44.399Z,99.99
2018-05-12T20:19:44.402Z,99.99
2018-05-12T20:55:55.317Z,99.99
2018-05-12T20:56:53.687Z,99.99
2018-05-12T20:57:53.688Z,99.99
2018-05-12T20:58:53.687Z,99.99
2018-05-12T20:59:53.687Z,99.99
2018-05-12T22:12:59.726Z,99.99
2018-05-12T22:13:41.635Z,99.99
2018-05-12T22:14:41.632Z,99.99
2018-05-12T22:15:41.627Z,99.99
2018-05-12T22:16:41.631Z,99.99
2018-05-12T22:19:42.388Z,99.99
2018-05-12T22:20:13.615Z,99.99
2018-05-12T22:21:13.616Z,99.99
2018-05-12T22:22:13.656Z,99.99
2018-05-12T22:23:13.621Z,99.99
2018-05-12T22:24:13.620Z,99.99
2018-05-12T22:25:13.616Z,99.99
2018-05-12T22:26:13.622Z,99.99
2018-05-12T22:30:18.435Z,99.99
2018-05-12T22:31:16.865Z,99.99
2018-05-12T22:32:16.913Z,99.99
2018-05-12T22:33:16.872Z,99.99
2018-05-12T22:34:16.873Z,99.99
2018-05-12T22:35:16.867Z,99.99
2018-05-12T22:36:16.870Z,99.99
2018-05-12T22:37:16.983Z,99.99
2018-05-12T22:38:16.879Z,99.99
2018-05-12T22:39:16.875Z,99.99
2018-05-12T22:40:16.878Z,99.99
2018-05-12T22:41:16.872Z,99.99
2018-05-12T22:44:15.641Z,99.99
2018-05-12T22:44:48.604Z,99.99
2018-05-12T22:45:48.596Z,99.99
2018-05-12T22:46:48.605Z,99.99
2018-05-12T22:47:49.633Z,99.99
2018-05-12T22:48:48.609Z,99.99
2018-05-12T22:49:48.602Z,99.99
2018-05-12T22:50:48.605Z,99.99
2018-05-12T22:51:48.607Z,99.99
2018-05-12T22:52:48.609Z,99.99
2018-05-12T22:55:20.370Z,99.99
2018-05-12T22:56:20.313Z,99.99
2018-05-12T22:57:20.322Z,99.99
2018-05-12T22:59:54.539Z,99.99
2018-05-12T23:00:51.990Z,99.99
2018-05-12T23:01:51.991Z,99.99
